ESOK/KSD METAR and TAF weather

Enter ICAO airport designator
Station Type Date Time Source
ESOK METAR 2021/04/14 19:20 UTC NOAA

ESOK 141920Z AUTO 23001KT 9999 FEW076/// 03/M01 Q1029


Station Type Date Time Source
ESOK Decoded METAR 2021/04/14 19:20 UTC NOAA

Karlstad , Sweden (ESOK) 59-26-41N 013-20-15E
Apr 14, 2021 - 03:20 PM EDT / 2021.04.14 1920 UTC
Wind: from the SW (230 degrees) at 1 MPH (1 KT):0
Visibility: greater than 7 mile(s):0
Sky conditions: mostly clear
Temperature: 37 F (3 C)
Dew Point: 30 F (-1 C)
Relative Humidity: 74%
Pressure (altimeter): 30.39 in. Hg (1029 hPa)
ob: ESOK 141920Z AUTO 23001KT 9999 FEW076/// 03/M01 Q1029
cycle: 19

Station Type Date Time Source
ESOK TAF 2017/05/22 06:33 UTC NOAA

TAF ESOK 220530Z 2206/2224 28006KT CAVOK

Example: see airport list